createdAt,value
2023-11-24T00:00:30.516Z,26.46
2023-11-24T00:01:55.191Z,26.47
2023-11-24T00:03:15.419Z,26.47
2023-11-24T00:04:40.497Z,26.47
2023-11-24T00:06:04.515Z,26.47
2023-11-24T00:07:24.774Z,26.47
2023-11-24T00:08:49.454Z,26.46
2023-11-24T00:10:09.700Z,26.47
2023-11-24T00:11:34.766Z,26.46
2023-11-24T00:12:58.748Z,26.47
2023-11-24T00:14:18.972Z,26.46
2023-11-24T00:15:43.691Z,26.46
2023-11-24T00:17:03.929Z,26.46
2023-11-24T00:18:29.000Z,26.46
2023-11-24T00:19:53.042Z,26.47
2023-11-24T00:21:13.253Z,26.47
2023-11-24T00:22:38.025Z,26.47
2023-11-24T00:23:58.198Z,26.46
2023-11-24T00:25:23.237Z,26.45
2023-11-24T00:26:47.278Z,26.46
2023-11-24T00:28:07.556Z,26.46
2023-11-24T00:29:32.240Z,26.47
2023-11-24T00:30:52.475Z,26.46
2023-11-24T00:32:17.516Z,26.47
2023-11-24T00:33:41.536Z,26.47
2023-11-24T00:35:01.765Z,26.47
2023-11-24T00:36:26.435Z,26.47
2023-11-24T00:37:46.727Z,26.47
2023-11-24T00:39:11.768Z,26.47
2023-11-24T00:40:35.801Z,26.46
2023-11-24T00:41:56.025Z,26.47
2023-11-24T00:43:20.738Z,26.47
2023-11-24T00:44:40.982Z,26.47
2023-11-24T00:47:30.003Z,26.46
2023-11-24T00:48:50.280Z,26.47
2023-11-24T00:50:14.968Z,26.47
2023-11-24T00:51:35.210Z,26.46
2023-11-24T00:53:00.301Z,26.46
2023-11-24T00:54:24.397Z,26.47
2023-11-24T00:55:44.540Z,26.47
2023-11-24T00:57:09.306Z,26.46
2023-11-24T00:58:29.432Z,26.46
2023-11-24T00:59:54.530Z,26.47
2023-11-24T01:01:18.542Z,26.46
2023-11-24T01:02:38.787Z,26.47
2023-11-24T01:04:03.497Z,26.47
2023-11-24T01:05:23.735Z,26.46
2023-11-24T01:06:48.809Z,26.47
2023-11-24T01:08:12.788Z,26.47
2023-11-24T01:09:32.998Z,26.47
2023-11-24T01:10:57.730Z,26.47
2023-11-24T01:12:17.975Z,26.47
2023-11-24T01:13:43.021Z,26.46
2023-11-24T01:15:07.046Z,26.47
2023-11-24T01:16:27.288Z,26.47
2023-11-24T01:17:52.021Z,26.47
2023-11-24T01:19:12.214Z,26.47
2023-11-24T01:20:37.253Z,26.47
2023-11-24T01:22:01.327Z,26.45
2023-11-24T01:23:21.538Z,26.47
2023-11-24T01:24:46.267Z,26.45
2023-11-24T01:26:06.482Z,26.47
2023-11-24T01:27:31.545Z,26.47
2023-11-24T01:28:55.579Z,26.47
2023-11-24T01:31:40.484Z,26.46
2023-11-24T01:33:00.730Z,26.46
2023-11-24T01:34:25.834Z,26.47
2023-11-24T01:35:49.822Z,26.46
2023-11-24T01:37:10.040Z,26.46
2023-11-24T01:38:34.759Z,26.46
2023-11-24T01:39:54.993Z,26.47
2023-11-24T01:41:20.043Z,26.46
2023-11-24T01:42:44.024Z,26.45
2023-11-24T01:44:04.328Z,26.47
2023-11-24T01:45:29.023Z,26.46
2023-11-24T01:46:49.244Z,26.46
2023-11-24T01:48:14.325Z,26.47
2023-11-24T01:49:38.358Z,26.47
2023-11-24T01:50:58.583Z,26.46
2023-11-24T01:52:23.242Z,26.46
2023-11-24T01:53:43.507Z,26.46
2023-11-24T01:55:08.564Z,26.47
2023-11-24T01:56:32.585Z,26.46
2023-11-24T01:57:52.809Z,26.46
2023-11-24T01:59:17.521Z,26.47
2023-11-24T02:00:37.760Z,26.45
2023-11-24T02:02:02.831Z,26.45
2023-11-24T02:03:26.836Z,26.47
2023-11-24T02:04:47.050Z,26.46
2023-11-24T02:06:11.768Z,26.47
2023-11-24T02:07:32.005Z,26.46
2023-11-24T02:08:57.082Z,26.46
2023-11-24T02:10:21.117Z,26.47
2023-11-24T02:11:41.365Z,26.47
2023-11-24T02:13:06.047Z,26.46
2023-11-24T02:14:26.269Z,26.46
2023-11-24T02:15:51.316Z,26.46
2023-11-24T02:17:15.359Z,26.47
2023-11-24T02:18:35.604Z,26.46
2023-11-24T02:20:00.316Z,26.47
2023-11-24T02:21:20.549Z,26.45
2023-11-24T02:22:45.621Z,26.46
2023-11-24T02:24:09.636Z,26.45
2023-11-24T02:25:29.854Z,26.47
2023-11-24T02:26:54.542Z,26.47
2023-11-24T02:28:14.793Z,26.47
2023-11-24T02:29:39.875Z,26.47
2023-11-24T02:31:03.911Z,26.47
2023-11-24T02:32:24.136Z,26.47
2023-11-24T02:33:48.827Z,26.45
2023-11-24T02:35:09.072Z,26.47
2023-11-24T02:36:34.109Z,26.45
2023-11-24T02:37:58.103Z,26.47
2023-11-24T02:39:18.384Z,26.46
2023-11-24T02:40:43.104Z,26.47
2023-11-24T02:42:28.138Z,26.46
2023-11-24T02:43:48.357Z,26.47
2023-11-24T02:45:13.059Z,26.45
2023-11-24T02:46:33.300Z,26.46
2023-11-24T02:47:58.344Z,26.47
2023-11-24T02:49:22.364Z,26.47
2023-11-24T02:50:42.608Z,26.46
2023-11-24T02:52:07.323Z,26.46
2023-11-24T02:53:27.575Z,26.47
2023-11-24T02:54:52.628Z,26.47
2023-11-24T02:56:16.658Z,26.47
2023-11-24T02:57:36.854Z,26.46
2023-11-24T02:59:01.540Z,26.46
2023-11-24T03:00:21.808Z,26.46
2023-11-24T03:01:46.882Z,26.47
2023-11-24T03:03:10.905Z,26.45
2023-11-24T03:04:31.144Z,26.46
2023-11-24T03:05:55.838Z,26.46
2023-11-24T03:07:16.065Z,26.47
2023-11-24T03:08:41.122Z,26.46
2023-11-24T03:10:05.123Z,26.46
2023-11-24T03:11:25.401Z,26.47
2023-11-24T03:12:50.108Z,26.47
2023-11-24T03:14:10.351Z,26.46
2023-11-24T03:15:35.395Z,26.46
2023-11-24T03:16:59.404Z,26.46
2023-11-24T03:18:19.659Z,26.47
2023-11-24T03:19:44.332Z,26.46
2023-11-24T03:21:04.538Z,26.47
2023-11-24T03:22:29.624Z,26.46
2023-11-24T03:23:53.652Z,26.46
2023-11-24T03:25:13.893Z,26.46
2023-11-24T03:26:38.604Z,26.45
2023-11-24T03:27:58.845Z,26.46
2023-11-24T03:29:24.037Z,26.45
2023-11-24T03:30:47.891Z,26.45
2023-11-24T03:32:08.152Z,26.46
2023-11-24T03:33:32.851Z,26.46
2023-11-24T03:34:53.082Z,26.46
2023-11-24T03:36:18.169Z,26.46
2023-11-24T03:37:42.193Z,26.46
2023-11-24T03:39:02.546Z,26.46
2023-11-24T03:40:27.139Z,26.46
2023-11-24T03:41:47.354Z,26.46
2023-11-24T03:43:12.369Z,26.45
2023-11-24T03:44:36.443Z,26.46
2023-11-24T03:45:56.690Z,26.46
2023-11-24T03:47:21.381Z,26.46
2023-11-24T03:48:41.619Z,26.45
2023-11-24T03:50:06.683Z,26.45
2023-11-24T03:51:30.703Z,26.45
2023-11-24T03:52:50.934Z,26.46
2023-11-24T03:54:15.615Z,26.46
2023-11-24T03:55:35.893Z,26.46
2023-11-24T03:57:00.968Z,26.46
2023-11-24T03:58:24.990Z,26.46
2023-11-24T03:59:45.194Z,26.46
2023-11-24T04:01:09.909Z,26.45
2023-11-24T04:02:30.157Z,26.45
2023-11-24T04:03:55.183Z,26.46
2023-11-24T04:05:19.190Z,26.47
2023-11-24T04:06:39.474Z,26.47
2023-11-24T04:08:04.179Z,26.46
2023-11-24T04:09:24.439Z,26.47
2023-11-24T04:10:49.465Z,26.45
2023-11-24T04:12:13.491Z,26.46
2023-11-24T04:13:33.737Z,26.46
2023-11-24T04:14:58.420Z,26.47
2023-11-24T04:16:18.665Z,26.46
2023-11-24T04:17:43.737Z,26.46
2023-11-24T04:19:07.764Z,26.46
2023-11-24T04:20:28.006Z,26.45
2023-11-24T04:21:52.714Z,26.45
2023-11-24T04:23:12.930Z,26.46
2023-11-24T04:24:37.993Z,26.46
2023-11-24T04:26:02.000Z,26.46
2023-11-24T04:27:22.210Z,26.46
2023-11-24T04:28:46.957Z,26.46
2023-11-24T04:30:07.191Z,26.46
2023-11-24T04:31:32.256Z,26.46
2023-11-24T04:32:56.276Z,26.46
2023-11-24T04:34:16.503Z,26.46
2023-11-24T04:35:41.224Z,26.46
2023-11-24T04:37:01.439Z,26.46
2023-11-24T04:38:26.502Z,26.46
2023-11-24T04:39:50.546Z,26.45
2023-11-24T04:41:10.809Z,26.46
2023-11-24T04:42:35.477Z,26.46
2023-11-24T04:43:55.725Z,26.45
2023-11-24T04:45:20.770Z,26.46
2023-11-24T04:46:44.785Z,26.45
2023-11-24T04:48:05.027Z,26.46
2023-11-24T04:49:29.689Z,26.45
2023-11-24T04:50:49.977Z,26.45
2023-11-24T04:52:15.067Z,26.45
2023-11-24T04:53:39.037Z,26.45
2023-11-24T04:54:59.288Z,26.45
2023-11-24T04:56:23.973Z,26.45
2023-11-24T04:57:44.231Z,26.44
2023-11-24T04:59:09.293Z,26.46
2023-11-24T05:00:33.275Z,26.46
2023-11-24T05:01:53.531Z,26.45
2023-11-24T05:03:18.281Z,26.46
2023-11-24T05:04:38.485Z,26.45
2023-11-24T05:06:03.577Z,26.46
2023-11-24T05:07:27.572Z,26.46
2023-11-24T05:08:47.813Z,26.46
2023-11-24T05:10:12.502Z,26.45
2023-11-24T05:11:32.705Z,26.46
2023-11-24T05:12:57.796Z,26.46
2023-11-24T05:14:21.850Z,26.46
2023-11-24T05:15:42.070Z,26.44
2023-11-24T05:17:06.776Z,26.45
2023-11-24T05:18:27.003Z,26.46
2023-11-24T05:19:52.063Z,26.46
2023-11-24T05:21:16.078Z,26.44
2023-11-24T05:22:36.290Z,26.46
2023-11-24T05:24:01.114Z,26.45
2023-11-24T05:25:21.251Z,26.46
2023-11-24T05:26:46.329Z,26.45
2023-11-24T05:28:10.338Z,26.44
2023-11-24T05:29:30.587Z,26.46
2023-11-24T05:30:55.282Z,26.46
2023-11-24T05:32:15.497Z,26.45
2023-11-24T05:33:40.537Z,26.46
2023-11-24T05:35:04.573Z,26.46
2023-11-24T05:36:24.814Z,26.46
2023-11-24T05:37:49.532Z,26.45
2023-11-24T05:39:09.779Z,26.45
2023-11-24T05:40:34.817Z,26.46
2023-11-24T05:41:58.895Z,26.45
2023-11-24T05:43:19.062Z,26.44
2023-11-24T05:44:43.727Z,26.45
2023-11-24T05:46:04.031Z,26.44
2023-11-24T05:47:29.164Z,26.45
2023-11-24T05:48:53.073Z,26.46
2023-11-24T05:50:13.357Z,26.45
2023-11-24T05:51:38.017Z,26.45
2023-11-24T05:52:58.242Z,26.46
2023-11-24T05:54:23.322Z,26.46
2023-11-24T05:55:47.325Z,26.46
2023-11-24T05:57:07.574Z,26.45
2023-11-24T05:58:32.297Z,26.45
2023-11-24T05:59:52.510Z,26.45
2023-11-24T06:01:17.595Z,26.45
2023-11-24T06:02:41.593Z,26.45
2023-11-24T06:04:01.836Z,26.44
2023-11-24T06:05:26.498Z,26.45
2023-11-24T06:06:46.747Z,26.46
2023-11-24T06:08:11.829Z,26.44
2023-11-24T06:09:35.853Z,26.45
2023-11-24T06:10:56.090Z,26.46
2023-11-24T06:12:20.777Z,26.45
2023-11-24T06:13:41.033Z,26.45
2023-11-24T06:15:06.102Z,26.45
2023-11-24T06:16:30.102Z,26.44
2023-11-24T06:17:50.336Z,26.44
2023-11-24T06:19:15.060Z,26.45
2023-11-24T06:20:35.248Z,26.45
2023-11-24T06:22:00.353Z,26.45
2023-11-24T06:23:24.375Z,26.45
2023-11-24T06:24:44.586Z,26.45
2023-11-24T06:26:09.319Z,26.44
2023-11-24T06:27:29.516Z,26.45
2023-11-24T06:28:54.553Z,26.45
2023-11-24T06:30:18.731Z,26.45
2023-11-24T06:31:38.854Z,26.45
2023-11-24T06:33:03.617Z,26.45
2023-11-24T06:34:23.777Z,26.45
2023-11-24T06:35:48.908Z,26.44
2023-11-24T06:37:12.867Z,26.44
2023-11-24T06:38:33.090Z,26.45
2023-11-24T06:39:57.767Z,26.45
2023-11-24T06:41:18.032Z,26.44
2023-11-24T06:42:43.110Z,26.45
2023-11-24T06:44:07.118Z,26.46
2023-11-24T06:45:27.354Z,26.46
2023-11-24T06:46:52.064Z,26.45
2023-11-24T06:48:12.319Z,26.45
2023-11-24T06:49:37.348Z,26.45
2023-11-24T06:51:01.348Z,26.45
2023-11-24T06:52:21.634Z,26.44
2023-11-24T06:53:46.362Z,26.45
2023-11-24T06:55:06.557Z,26.46
2023-11-24T06:56:31.626Z,26.45
2023-11-24T06:57:55.679Z,26.44
2023-11-24T06:59:15.874Z,26.45
2023-11-24T07:00:40.568Z,26.45
2023-11-24T07:02:00.807Z,26.46
2023-11-24T07:03:25.890Z,26.46
2023-11-24T07:04:49.915Z,26.47
2023-11-24T07:06:10.212Z,26.45
2023-11-24T07:07:34.860Z,26.48
2023-11-24T07:08:55.073Z,26.47
2023-11-24T07:10:20.134Z,26.47
2023-11-24T07:11:44.214Z,26.46
2023-11-24T07:13:04.395Z,26.45
2023-11-24T07:14:29.084Z,26.46
2023-11-24T07:15:49.427Z,26.46
2023-11-24T07:17:14.385Z,26.46
2023-11-24T07:18:38.411Z,26.48
2023-11-24T07:20:20.075Z,26.47
2023-11-24T07:21:45.112Z,26.47
2023-11-24T07:23:09.113Z,26.46
2023-11-24T07:24:29.397Z,26.46
2023-11-24T07:25:54.083Z,26.46
2023-11-24T07:27:14.311Z,26.47
2023-11-24T07:28:39.366Z,26.48
2023-11-24T07:30:03.414Z,26.45
2023-11-24T07:31:23.630Z,26.46
2023-11-24T07:32:48.359Z,26.46
2023-11-24T07:34:08.570Z,26.47
2023-11-24T07:35:33.652Z,26.46
2023-11-24T07:36:57.668Z,26.47
2023-11-24T07:38:17.894Z,26.49
2023-11-24T07:39:42.604Z,26.49
2023-11-24T07:41:02.834Z,26.5
2023-11-24T07:42:27.977Z,26.52
2023-11-24T07:43:51.908Z,26.51
2023-11-24T07:45:12.131Z,26.51
2023-11-24T07:46:36.867Z,26.51
2023-11-24T07:47:57.131Z,26.52
2023-11-24T07:49:22.177Z,26.72
2023-11-24T07:50:46.213Z,26.78
2023-11-24T07:52:06.450Z,26.72
2023-11-24T07:53:31.152Z,26.74
2023-11-24T07:54:51.380Z,26.75
2023-11-24T07:56:16.421Z,26.77
2023-11-24T07:57:40.446Z,26.78
2023-11-24T07:59:00.785Z,26.84
2023-11-24T08:00:25.406Z,26.89
2023-11-24T08:01:45.639Z,26.9
2023-11-24T08:03:10.689Z,26.91
2023-11-24T08:04:34.727Z,26.81
2023-11-24T08:05:54.954Z,26.67
2023-11-24T08:07:19.638Z,26.62
2023-11-24T08:08:39.938Z,26.63
2023-11-24T08:10:04.958Z,26.63
2023-11-24T08:11:28.971Z,26.61
2023-11-24T08:12:49.220Z,26.62
2023-11-24T08:14:13.928Z,26.61
2023-11-24T08:15:34.140Z,26.62
2023-11-24T08:16:59.438Z,26.6
2023-11-24T08:18:23.210Z,26.58
2023-11-24T08:19:43.472Z,26.58
2023-11-24T08:21:08.190Z,26.59
2023-11-24T08:22:28.437Z,26.59
2023-11-24T08:23:53.496Z,26.56
2023-11-24T08:25:17.511Z,26.55
2023-11-24T08:26:37.781Z,26.54
2023-11-24T08:28:02.425Z,26.54
2023-11-24T08:29:22.666Z,26.55
2023-11-24T08:30:47.751Z,26.56
2023-11-24T08:32:11.747Z,26.58
2023-11-24T08:33:32.001Z,26.58
2023-11-24T08:34:56.717Z,26.59
2023-11-24T08:36:16.988Z,26.57
2023-11-24T08:37:42.008Z,26.53
2023-11-24T08:39:06.016Z,26.55
2023-11-24T08:40:26.356Z,26.56
2023-11-24T08:41:51.096Z,26.61
2023-11-24T08:43:11.265Z,26.62
2023-11-24T08:44:36.353Z,26.62
2023-11-24T08:46:00.278Z,26.61
2023-11-24T08:47:20.547Z,26.61
2023-11-24T08:48:45.239Z,26.61
2023-11-24T08:50:05.478Z,26.86
2023-11-24T08:51:30.521Z,26.86
2023-11-24T08:52:54.586Z,26.93
2023-11-24T08:54:14.914Z,27
2023-11-24T08:55:39.476Z,27
2023-11-24T08:56:59.730Z,27.03
2023-11-24T08:58:24.785Z,27.16
2023-11-24T08:59:48.803Z,27.3
2023-11-24T09:01:09.009Z,27.43
2023-11-24T09:02:33.735Z,27.43
2023-11-24T09:03:53.993Z,27.37
2023-11-24T09:05:19.014Z,27.33
2023-11-24T09:06:43.071Z,27.4
2023-11-24T09:08:03.313Z,27.46
2023-11-24T09:09:28.014Z,27.54
2023-11-24T09:10:48.265Z,28.24
2023-11-24T09:12:13.311Z,27.58
2023-11-24T09:13:37.288Z,27.54
2023-11-24T09:14:57.554Z,27.62
2023-11-24T09:16:22.252Z,27.82
2023-11-24T09:17:42.553Z,27.87
2023-11-24T09:19:07.584Z,27.84
2023-11-24T09:20:31.625Z,27.76
2023-11-24T09:21:51.834Z,27.61
2023-11-24T09:23:16.588Z,27.57
2023-11-24T09:24:36.852Z,27.58
2023-11-24T09:26:01.828Z,27.46
2023-11-24T09:27:25.863Z,27.46
2023-11-24T09:28:46.108Z,27.46
2023-11-24T09:30:10.804Z,27.66
2023-11-24T09:31:31.032Z,27.63
2023-11-24T09:32:56.094Z,28.67
2023-11-24T09:34:20.080Z,27.73
2023-11-24T09:35:40.299Z,27.5
2023-11-24T09:37:05.049Z,28.43
2023-11-24T09:38:25.257Z,28.6
2023-11-24T09:39:50.366Z,28.55
2023-11-24T09:41:14.395Z,28.55
2023-11-24T09:42:34.612Z,27.78
2023-11-24T09:43:59.320Z,28.53
2023-11-24T09:45:19.536Z,28.37
2023-11-24T09:46:44.668Z,28.61
2023-11-24T09:48:08.616Z,27.7
2023-11-24T09:49:28.888Z,27.19
2023-11-24T09:50:53.577Z,27.21
2023-11-24T09:52:13.795Z,27.21
2023-11-24T09:53:38.887Z,27.26
2023-11-24T09:55:02.911Z,27.29
2023-11-24T09:56:23.164Z,27.29
2023-11-24T09:57:47.805Z,27.18
2023-11-24T09:59:08.103Z,27.18
2023-11-24T10:00:33.158Z,27.18
2023-11-24T10:01:57.170Z,27.54
2023-11-24T10:03:17.403Z,27.58
2023-11-24T10:04:42.136Z,27.61
2023-11-24T10:06:02.324Z,27.26
2023-11-24T10:07:27.371Z,27.18
2023-11-24T10:08:51.395Z,27.29
2023-11-24T10:10:11.670Z,27.45
2023-11-24T10:11:36.384Z,28.57
2023-11-24T10:12:56.596Z,28.68
2023-11-24T10:14:21.686Z,27.7
2023-11-24T10:15:45.701Z,27.56
2023-11-24T10:17:05.918Z,27.49
2023-11-24T10:18:30.595Z,27.44
2023-11-24T10:19:50.814Z,27.34
2023-11-24T10:21:15.898Z,27.36
2023-11-24T10:22:39.918Z,27.53
2023-11-24T10:24:00.159Z,27.51
2023-11-24T10:25:24.873Z,27.3
2023-11-24T10:26:45.088Z,27.26
2023-11-24T10:28:10.154Z,27.27
2023-11-24T10:29:34.180Z,27.5
2023-11-24T10:30:54.381Z,27.39
2023-11-24T10:32:19.143Z,27.35
2023-11-24T10:33:39.346Z,27.39
2023-11-24T10:35:04.430Z,27.43
2023-11-24T10:36:28.428Z,27.46
2023-11-24T10:37:48.669Z,27.36
2023-11-24T10:39:13.622Z,27.39
2023-11-24T10:40:33.894Z,27.46
2023-11-24T10:41:58.845Z,27.61
2023-11-24T10:43:22.892Z,27.59
2023-11-24T10:44:43.181Z,27.56
2023-11-24T10:46:07.966Z,27.62
2023-11-24T10:47:28.081Z,27.55
2023-11-24T10:48:52.943Z,27.68
2023-11-24T10:50:16.960Z,27.66
2023-11-24T10:51:37.566Z,28.19
2023-11-24T10:53:02.040Z,28.24
2023-11-24T10:54:22.274Z,28.39
2023-11-24T10:55:47.405Z,27.7
2023-11-24T10:57:11.492Z,27.7
2023-11-24T10:58:31.621Z,27.6
2023-11-24T10:59:56.500Z,27.46
2023-11-24T11:01:16.605Z,27.44
2023-11-24T11:02:41.772Z,27.33
2023-11-24T11:04:05.712Z,27.32
2023-11-24T11:05:25.958Z,27.26
2023-11-24T11:06:50.751Z,27.28
2023-11-24T11:08:10.901Z,27.31
2023-11-24T11:09:35.784Z,27.33
2023-11-24T11:10:59.781Z,27.36
2023-11-24T11:12:20.308Z,27.33
2023-11-24T11:13:44.904Z,27.35
2023-11-24T11:15:05.171Z,27.4
2023-11-24T11:16:29.993Z,27.4
2023-11-24T11:17:54.229Z,27.37
2023-11-24T11:19:14.529Z,27.31
2023-11-24T11:20:39.263Z,27.31
2023-11-24T11:21:59.309Z,27.3
2023-11-24T11:23:24.415Z,27.22
2023-11-24T11:24:48.460Z,27.14
2023-11-24T11:26:08.741Z,27.07
2023-11-24T11:27:33.218Z,27.11
2023-11-24T11:28:53.558Z,27.17
2023-11-24T11:30:18.511Z,27.3
2023-11-24T11:31:42.805Z,27.49
2023-11-24T11:33:02.902Z,28.31
2023-11-24T11:34:27.627Z,27.91
2023-11-24T11:35:47.896Z,28.01
2023-11-24T11:37:12.721Z,28.12
2023-11-24T11:38:37.105Z,27.98
2023-11-24T11:39:57.313Z,27.71
2023-11-24T11:41:21.777Z,27.56
2023-11-24T11:42:42.091Z,27.5
2023-11-24T11:44:07.026Z,27.48
2023-11-24T11:45:31.248Z,27.41
2023-11-24T11:46:51.467Z,27.46
2023-11-24T11:48:16.238Z,27.76
2023-11-24T11:49:36.378Z,27.72
2023-11-24T11:51:01.295Z,27.52
2023-11-24T11:52:25.298Z,27.46
2023-11-24T11:53:45.605Z,27.32
2023-11-24T11:55:10.512Z,27.34
2023-11-24T11:56:55.432Z,27.3
2023-11-24T11:58:15.551Z,27.26
2023-11-24T11:59:40.209Z,27.23
2023-11-24T12:01:00.458Z,27.25
2023-11-24T12:02:25.527Z,27.3
2023-11-24T12:03:49.565Z,27.32
2023-11-24T12:05:09.802Z,27.22
2023-11-24T12:06:34.501Z,27.21
2023-11-24T12:07:54.707Z,27.22
2023-11-24T12:09:19.800Z,27.17
2023-11-24T12:10:43.801Z,27.2
2023-11-24T12:12:04.036Z,27.21
2023-11-24T12:13:28.719Z,27.36
2023-11-24T12:14:48.954Z,27.42
2023-11-24T12:16:14.049Z,27.73
2023-11-24T12:17:38.066Z,27.7
2023-11-24T12:18:58.311Z,27.88
2023-11-24T12:20:22.961Z,28.19
2023-11-24T12:21:43.237Z,28.02
2023-11-24T12:23:08.335Z,28.41
2023-11-24T12:24:32.342Z,28.27
2023-11-24T12:25:52.572Z,28.2
2023-11-24T12:27:17.263Z,28.58
2023-11-24T12:28:37.487Z,28.25
2023-11-24T12:30:02.540Z,28.18
2023-11-24T12:31:26.552Z,28.17
2023-11-24T12:32:46.809Z,28.18
2023-11-24T12:34:11.515Z,28.16
2023-11-24T12:35:31.732Z,28.15
2023-11-24T12:36:56.834Z,28.17
2023-11-24T12:38:20.861Z,27.96
2023-11-24T12:39:41.057Z,27.86
2023-11-24T12:41:05.769Z,27.82
2023-11-24T12:42:25.957Z,27.83
2023-11-24T12:43:51.057Z,27.96
2023-11-24T12:45:15.104Z,28.07
2023-11-24T12:46:35.313Z,28.13
2023-11-24T12:48:00.041Z,28.33
2023-11-24T12:49:20.246Z,28.42
2023-11-24T12:50:45.344Z,28.51
2023-11-24T12:52:09.349Z,28.46
2023-11-24T12:53:29.564Z,28.43
2023-11-24T12:54:54.273Z,28.46
2023-11-24T12:56:14.493Z,28.68
2023-11-24T12:57:39.606Z,28.89
2023-11-24T13:00:23.838Z,28.31
2023-11-24T13:01:48.550Z,27.92
2023-11-24T13:04:33.801Z,27.91
2023-11-24T13:07:18.105Z,28.02
2023-11-24T13:10:45.677Z,27.78
2023-11-24T13:17:32.784Z,27.9
2023-11-24T13:21:17.924Z,27.91
2023-11-24T13:22:38.160Z,27.66
2023-11-24T13:24:19.949Z,27.61
2023-11-24T13:26:01.721Z,27.53
2023-11-24T13:27:43.500Z,27.48
2023-11-24T13:29:25.309Z,27.46
2023-11-24T13:31:07.077Z,27.38
2023-11-24T13:32:48.818Z,27.33
2023-11-24T13:34:30.645Z,27.3
2023-11-24T13:36:12.433Z,27.25
2023-11-24T13:37:54.227Z,27.21
2023-11-24T13:39:35.963Z,27.17
2023-11-24T13:41:17.770Z,27.16
2023-11-24T13:42:59.558Z,27.13
2023-11-24T13:44:41.371Z,27.14
2023-11-24T13:46:23.104Z,27.13
2023-11-24T13:48:04.914Z,27.13
2023-11-24T13:49:46.720Z,27.11
2023-11-24T13:51:28.513Z,27.12
2023-11-24T13:53:10.238Z,27.12
2023-11-24T13:54:52.049Z,27.11
2023-11-24T13:56:33.829Z,27.08
2023-11-24T13:58:15.627Z,27.06
2023-11-24T13:59:57.375Z,27.06
2023-11-24T14:01:39.194Z,27.08
2023-11-24T14:03:20.994Z,27.07
2023-11-24T14:05:02.780Z,27.04
2023-11-24T14:06:44.537Z,27.03
2023-11-24T14:08:26.335Z,27.03
2023-11-24T14:10:08.097Z,27
2023-11-24T14:11:49.923Z,26.99
2023-11-24T14:13:31.647Z,26.97
2023-11-24T14:15:13.463Z,26.97
2023-11-24T14:16:55.262Z,26.94
2023-11-24T14:18:37.026Z,26.94
2023-11-24T14:20:18.796Z,26.94
2023-11-24T14:22:00.599Z,26.94
2023-11-24T14:23:42.381Z,26.93
2023-11-24T14:25:24.190Z,26.93
2023-11-24T14:27:05.937Z,26.91
2023-11-24T14:28:47.731Z,26.9
2023-11-24T14:30:29.540Z,26.93
2023-11-24T14:32:11.307Z,26.87
2023-11-24T14:33:53.081Z,26.87
2023-11-24T14:35:34.889Z,26.86
2023-11-24T14:37:16.633Z,26.84
2023-11-24T14:38:58.469Z,26.83
2023-11-24T14:40:40.202Z,26.83
2023-11-24T14:42:22.014Z,26.8
2023-11-24T14:44:03.804Z,26.8
2023-11-24T14:45:45.576Z,26.8
2023-11-24T14:47:27.332Z,26.77
2023-11-24T14:49:09.160Z,26.77
2023-11-24T14:50:50.957Z,26.76
2023-11-24T14:52:32.735Z,26.76
2023-11-24T14:54:14.467Z,26.75
2023-11-24T14:55:56.273Z,26.74
2023-11-24T14:57:38.077Z,26.74
2023-11-24T14:59:19.821Z,26.72
2023-11-24T15:01:01.601Z,26.73
2023-11-24T15:02:43.437Z,26.72
2023-11-24T15:04:25.192Z,26.71
2023-11-24T15:06:07.025Z,26.7
2023-11-24T15:07:48.746Z,26.7
2023-11-24T15:09:30.566Z,26.69
2023-11-24T15:11:12.340Z,26.69
2023-11-24T15:12:54.123Z,26.68
2023-11-24T15:14:35.901Z,26.67
2023-11-24T15:16:17.683Z,26.67
2023-11-24T15:17:59.486Z,26.67
2023-11-24T15:19:41.309Z,26.65
2023-11-24T15:21:23.035Z,26.66
2023-11-24T15:23:04.837Z,26.66
2023-11-24T15:24:46.623Z,26.64
2023-11-24T15:26:28.388Z,26.63
2023-11-24T15:28:10.160Z,26.65
2023-11-24T15:29:51.987Z,26.63
2023-11-24T15:31:33.775Z,26.64
2023-11-24T15:33:15.531Z,26.62
2023-11-24T15:34:57.271Z,26.63
2023-11-24T15:36:39.104Z,26.62
2023-11-24T15:38:20.884Z,26.62
2023-11-24T15:40:02.678Z,26.62
2023-11-24T15:41:44.447Z,26.61
2023-11-24T15:43:26.245Z,26.61
2023-11-24T15:45:08.010Z,26.6
2023-11-24T15:46:49.810Z,26.6
2023-11-24T15:48:31.569Z,26.6
2023-11-24T15:50:13.386Z,26.58
2023-11-24T15:51:55.165Z,26.6
2023-11-24T15:53:36.925Z,26.59
2023-11-24T15:55:18.702Z,26.59
2023-11-24T15:57:00.491Z,26.59
2023-11-24T15:58:42.306Z,26.58
2023-11-24T16:00:24.084Z,26.58
2023-11-24T16:02:05.818Z,26.58
2023-11-24T16:03:47.665Z,26.58
2023-11-24T16:05:29.454Z,26.56
2023-11-24T16:07:11.209Z,26.56
2023-11-24T16:08:52.976Z,26.56
2023-11-24T16:10:34.772Z,26.57
2023-11-24T16:12:16.586Z,26.57
2023-11-24T16:13:58.335Z,26.56
2023-11-24T16:15:40.096Z,26.55
2023-11-24T16:17:21.913Z,26.54
2023-11-24T16:19:03.707Z,26.55
2023-11-24T16:20:45.502Z,26.56
2023-11-24T16:22:27.235Z,26.54
2023-11-24T16:24:09.061Z,26.55
2023-11-24T16:25:50.837Z,26.55
2023-11-24T16:27:32.593Z,26.55
2023-11-24T16:29:14.400Z,26.54
2023-11-24T16:30:56.172Z,26.53
2023-11-24T16:32:37.972Z,26.54
2023-11-24T16:34:19.776Z,26.54
2023-11-24T16:36:01.504Z,26.54
2023-11-24T16:37:43.333Z,26.53
2023-11-24T16:39:25.111Z,26.53
2023-11-24T16:41:06.908Z,26.53
2023-11-24T16:42:48.635Z,26.53
2023-11-24T16:44:30.453Z,26.52
2023-11-24T16:46:12.258Z,26.53
2023-11-24T16:47:54.055Z,26.53
2023-11-24T16:49:35.829Z,26.51
2023-11-24T16:51:17.593Z,26.53
2023-11-24T16:52:59.379Z,26.52
2023-11-24T16:54:41.158Z,26.52
2023-11-24T16:56:22.932Z,26.52
2023-11-24T16:58:04.741Z,26.53
2023-11-24T16:59:46.514Z,26.52
2023-11-24T17:01:28.324Z,26.52
2023-11-24T17:03:10.036Z,26.52
2023-11-24T17:04:51.884Z,26.52
2023-11-24T17:06:33.661Z,26.52
2023-11-24T17:08:15.453Z,26.52
2023-11-24T17:09:57.158Z,26.52
2023-11-24T17:11:39.006Z,26.52
2023-11-24T17:13:20.805Z,26.51
2023-11-24T17:15:02.569Z,26.52
2023-11-24T17:16:44.340Z,26.51
2023-11-24T17:18:26.171Z,26.51
2023-11-24T17:20:07.949Z,26.52
2023-11-24T17:21:49.737Z,26.51
2023-11-24T17:23:31.459Z,26.51
2023-11-24T17:25:13.278Z,26.51
2023-11-24T17:26:55.035Z,26.51
2023-11-24T17:28:36.871Z,26.51
2023-11-24T17:30:18.597Z,26.5
2023-11-24T17:32:00.414Z,26.5
2023-11-24T17:33:42.191Z,26.49
2023-11-24T17:35:23.979Z,26.51
2023-11-24T17:37:05.728Z,26.5
2023-11-24T17:38:47.559Z,26.51
2023-11-24T17:40:29.337Z,26.51
2023-11-24T17:42:11.105Z,26.5
2023-11-24T17:43:52.876Z,26.5
2023-11-24T17:45:34.670Z,26.5
2023-11-24T17:47:16.484Z,26.51
2023-11-24T17:48:58.258Z,26.5
2023-11-24T17:50:39.994Z,26.49
2023-11-24T17:52:21.833Z,26.51
2023-11-24T17:54:03.609Z,26.51
2023-11-24T17:55:45.418Z,26.5
2023-11-24T17:57:27.112Z,26.5
2023-11-24T17:59:08.977Z,26.5
2023-11-24T18:00:50.743Z,26.5
2023-11-24T18:02:32.534Z,26.5
2023-11-24T18:04:14.293Z,26.5
2023-11-24T18:05:56.110Z,26.5
2023-11-24T18:07:37.893Z,26.5
2023-11-24T18:09:19.645Z,26.5
2023-11-24T18:11:01.417Z,26.5
2023-11-24T18:12:43.223Z,26.5
2023-11-24T18:14:25.022Z,26.5
2023-11-24T18:16:06.796Z,26.49
2023-11-24T18:17:48.548Z,26.5
2023-11-24T18:19:30.394Z,26.5
2023-11-24T18:21:12.154Z,26.5
2023-11-24T18:22:53.960Z,26.5
2023-11-24T18:24:35.696Z,26.49
2023-11-24T18:26:17.523Z,26.51
2023-11-24T18:27:59.251Z,26.5
2023-11-24T18:29:41.059Z,26.49
2023-11-24T18:31:22.797Z,26.49
2023-11-24T18:33:04.608Z,26.5
2023-11-24T18:34:46.392Z,26.49
2023-11-24T18:36:28.190Z,26.5
2023-11-24T18:38:09.943Z,26.49
2023-11-24T18:39:51.741Z,26.49
2023-11-24T18:41:33.513Z,26.48
2023-11-24T18:43:15.302Z,26.48
2023-11-24T18:44:57.062Z,26.5
2023-11-24T18:46:38.865Z,26.5
2023-11-24T18:48:20.686Z,26.49
2023-11-24T18:50:02.439Z,26.49
2023-11-24T18:51:44.207Z,26.5
2023-11-24T18:53:26.003Z,26.5
2023-11-24T18:55:07.790Z,26.5
2023-11-24T18:56:49.590Z,26.5
2023-11-24T18:58:31.361Z,26.5
2023-11-24T19:00:13.149Z,26.48
2023-11-24T19:01:54.941Z,26.49
2023-11-24T19:03:36.734Z,26.49
2023-11-24T19:05:18.497Z,26.49
2023-11-24T19:07:00.290Z,26.48
2023-11-24T19:08:42.072Z,26.49
2023-11-24T19:10:23.879Z,26.49
2023-11-24T19:12:05.628Z,26.49
2023-11-24T19:13:47.448Z,26.49